Accueil
METAR-TAF:

METAR-TAF

Aéroports :

Lugano, Suisse

Aéroport de Lugano

latitude: 46-00N, longitude: 008-58E, altitude: 273 m

Observation

Le bulletin a été fait il y a 40 minutes, à 10:20 UTC
Vent 2 kt de direction variable
Température 10°C
Humidité 71%
Pression 1020 hPa
Visibilité 10 km ou plus
Nuages épars à une hauteur de 5000 ft

METAR: LSZA 221020Z VRB02KT 9999 SCT050 10/05 Q1020 NOSIG

Heure: 12:00 (11:00 UTC)

Prévision

Le bulletin a été fait il y a 2 heures et 35 minutes, à 08:25 UTC
Prévision valable du 22 à 09 UTC au 22 à 18 UTC
Vent 3 kt de direction variable
Visibilité 10 km ou plus
Nuages fragmentés à une hauteur de 4000 ft

TAF: LSZA 220825Z 2209/2218 VRB03KT 9999 BKN040

Observations et prévisions météorologiques de plus de 4000 aéroports (messages METAR et TAF).

Les stations disponibles sont représentées par des disques jaunes et rouges sur la carte.

Passer la souris dessus pour voir le nom de la station.

Cliquer dessus pour voir les observations et prévisions météorologiques.

Pour changer de carte: cliquez sur les boutons verts avec une croix noire pour zoomer, sur le bouton vert avec un tiret pour effectuer un zoom arrière, ou sur les flèches vertes pour les cartes adjacentes.


METAR-TAF: